sensor_id;sensor_type;location;lat;lon;timestamp;temperature;humidity
23629;DHT22;11991;57.150;-2.134;2023-01-26T00:01:29;6.80;99.90
23629;DHT22;11991;57.150;-2.134;2023-01-26T00:03:56;6.80;99.90
23629;DHT22;11991;57.150;-2.134;2023-01-26T00:06:25;6.90;99.90
23629;DHT22;11991;57.150;-2.134;2023-01-26T00:08:54;6.80;99.90
23629;DHT22;11991;57.150;-2.134;2023-01-26T00:11:25;6.80;99.90
23629;DHT22;11991;57.150;-2.134;2023-01-26T00:13:54;6.80;99.90
23629;DHT22;11991;57.150;-2.134;2023-01-26T00:16:22;6.90;99.90
23629;DHT22;11991;57.150;-2.134;2023-01-26T00:18:49;6.90;99.90
23629;DHT22;11991;57.150;-2.134;2023-01-26T00:21:19;6.90;99.90
23629;DHT22;11991;57.150;-2.134;2023-01-26T00:23:47;6.90;99.90
23629;DHT22;11991;57.150;-2.134;2023-01-26T00:26:18;6.80;99.90
23629;DHT22;11991;57.150;-2.134;2023-01-26T00:28:46;6.90;99.90
23629;DHT22;11991;57.150;-2.134;2023-01-26T00:31:15;6.80;99.90
23629;DHT22;11991;57.150;-2.134;2023-01-26T00:33:43;6.80;99.90
23629;DHT22;11991;57.150;-2.134;2023-01-26T00:36:11;6.80;99.90
23629;DHT22;11991;57.150;-2.134;2023-01-26T00:38:39;6.80;99.90
23629;DHT22;11991;57.150;-2.134;2023-01-26T00:41:08;6.80;99.90
23629;DHT22;11991;57.150;-2.134;2023-01-26T00:43:35;6.80;99.90
23629;DHT22;11991;57.150;-2.134;2023-01-26T00:46:03;6.80;99.90
23629;DHT22;11991;57.150;-2.134;2023-01-26T00:48:30;6.80;99.90
23629;DHT22;11991;57.150;-2.134;2023-01-26T00:50:59;6.90;99.90
23629;DHT22;11991;57.150;-2.134;2023-01-26T00:53:26;6.80;99.90
23629;DHT22;11991;57.150;-2.134;2023-01-26T00:55:53;6.90;99.90
23629;DHT22;11991;57.150;-2.134;2023-01-26T00:58:24;6.90;99.90
23629;DHT22;11991;57.150;-2.134;2023-01-26T01:00:52;6.90;99.90
23629;DHT22;11991;57.150;-2.134;2023-01-26T01:03:19;6.90;99.90
23629;DHT22;11991;57.150;-2.134;2023-01-26T01:05:47;6.90;99.90
23629;DHT22;11991;57.150;-2.134;2023-01-26T01:08:14;6.90;99.90
23629;DHT22;11991;57.150;-2.134;2023-01-26T01:10:41;6.90;99.90
23629;DHT22;11991;57.150;-2.134;2023-01-26T01:13:08;6.90;99.90
23629;DHT22;11991;57.150;-2.134;2023-01-26T01:15:38;6.90;99.90
23629;DHT22;11991;57.150;-2.134;2023-01-26T01:18:06;6.90;99.90
23629;DHT22;11991;57.150;-2.134;2023-01-26T01:20:33;6.90;99.90
23629;DHT22;11991;57.150;-2.134;2023-01-26T01:23:01;6.90;99.90
23629;DHT22;11991;57.150;-2.134;2023-01-26T01:25:28;7.00;99.90
23629;DHT22;11991;57.150;-2.134;2023-01-26T01:27:55;6.90;99.90
23629;DHT22;11991;57.150;-2.134;2023-01-26T01:30:23;6.90;99.90
23629;DHT22;11991;57.150;-2.134;2023-01-26T01:32:50;6.90;99.90
23629;DHT22;11991;57.150;-2.134;2023-01-26T01:35:18;6.90;99.90
23629;DHT22;11991;57.150;-2.134;2023-01-26T01:37:45;6.90;99.90
23629;DHT22;11991;57.150;-2.134;2023-01-26T01:40:12;6.90;99.90
23629;DHT22;11991;57.150;-2.134;2023-01-26T01:42:48;6.90;99.90
23629;DHT22;11991;57.150;-2.134;2023-01-26T01:47:57;6.80;99.90
23629;DHT22;11991;57.150;-2.134;2023-01-26T01:50:25;6.80;99.90
23629;DHT22;11991;57.150;-2.134;2023-01-26T01:52:54;6.80;99.90
23629;DHT22;11991;57.150;-2.134;2023-01-26T01:55:22;6.80;99.90
23629;DHT22;11991;57.150;-2.134;2023-01-26T01:57:56;6.80;99.90
23629;DHT22;11991;57.150;-2.134;2023-01-26T02:00:27;6.80;99.90
23629;DHT22;11991;57.150;-2.134;2023-01-26T02:03:02;6.70;99.90
23629;DHT22;11991;57.150;-2.134;2023-01-26T02:06:07;6.70;99.90
23629;DHT22;11991;57.150;-2.134;2023-01-26T02:08:40;6.70;99.90
23629;DHT22;11991;57.150;-2.134;2023-01-26T02:11:15;6.70;99.90
23629;DHT22;11991;57.150;-2.134;2023-01-26T02:13:45;6.70;99.90
23629;DHT22;11991;57.150;-2.134;2023-01-26T02:16:14;6.70;99.90
23629;DHT22;11991;57.150;-2.134;2023-01-26T02:18:42;6.70;99.90
23629;DHT22;11991;57.150;-2.134;2023-01-26T02:21:18;6.60;99.90
23629;DHT22;11991;57.150;-2.134;2023-01-26T02:26:31;6.60;99.90
23629;DHT22;11991;57.150;-2.134;2023-01-26T02:29:01;6.60;99.90
23629;DHT22;11991;57.150;-2.134;2023-01-26T02:31:29;6.60;99.90
23629;DHT22;11991;57.150;-2.134;2023-01-26T02:33:57;6.60;99.90
23629;DHT22;11991;57.150;-2.134;2023-01-26T02:36:27;6.50;99.90
23629;DHT22;11991;57.150;-2.134;2023-01-26T02:41:43;6.50;99.90
23629;DHT22;11991;57.150;-2.134;2023-01-26T02:44:30;6.50;99.90
23629;DHT22;11991;57.150;-2.134;2023-01-26T02:46:58;6.40;99.90
23629;DHT22;11991;57.150;-2.134;2023-01-26T02:49:26;6.40;99.90
23629;DHT22;11991;57.150;-2.134;2023-01-26T02:52:20;6.40;99.90
23629;DHT22;11991;57.150;-2.134;2023-01-26T02:54:54;6.40;99.90
23629;DHT22;11991;57.150;-2.134;2023-01-26T02:57:40;6.40;99.90
23629;DHT22;11991;57.150;-2.134;2023-01-26T03:00:11;6.30;99.90
23629;DHT22;11991;57.150;-2.134;2023-01-26T03:02:40;6.30;99.90
23629;DHT22;11991;57.150;-2.134;2023-01-26T03:05:08;6.30;99.90
23629;DHT22;11991;57.150;-2.134;2023-01-26T03:07:35;6.20;99.90
23629;DHT22;11991;57.150;-2.134;2023-01-26T03:10:03;6.20;99.90
23629;DHT22;11991;57.150;-2.134;2023-01-26T03:12:31;6.20;99.90
23629;DHT22;11991;57.150;-2.134;2023-01-26T03:14:59;6.20;99.90
23629;DHT22;11991;57.150;-2.134;2023-01-26T03:17:44;6.20;99.90
23629;DHT22;11991;57.150;-2.134;2023-01-26T03:20:12;6.20;99.90
23629;DHT22;11991;57.150;-2.134;2023-01-26T03:22:58;6.20;99.90
23629;DHT22;11991;57.150;-2.134;2023-01-26T03:25:44;6.20;99.90
23629;DHT22;11991;57.150;-2.134;2023-01-26T03:28:32;6.10;99.90
23629;DHT22;11991;57.150;-2.134;2023-01-26T03:31:00;6.20;99.90
23629;DHT22;11991;57.150;-2.134;2023-01-26T03:33:30;6.20;99.90
23629;DHT22;11991;57.150;-2.134;2023-01-26T03:35:58;6.20;99.90
23629;DHT22;11991;57.150;-2.134;2023-01-26T03:38:25;6.20;99.90
23629;DHT22;11991;57.150;-2.134;2023-01-26T03:40:57;6.20;99.90
23629;DHT22;11991;57.150;-2.134;2023-01-26T03:43:42;6.30;99.90
23629;DHT22;11991;57.150;-2.134;2023-01-26T03:46:28;6.30;99.90
23629;DHT22;11991;57.150;-2.134;2023-01-26T03:49:14;6.20;99.90
23629;DHT22;11991;57.150;-2.134;2023-01-26T03:52:00;6.20;99.90
23629;DHT22;11991;57.150;-2.134;2023-01-26T03:54:47;6.30;99.90
23629;DHT22;11991;57.150;-2.134;2023-01-26T03:57:32;6.20;99.90
23629;DHT22;11991;57.150;-2.134;2023-01-26T04:00:00;6.30;99.90
23629;DHT22;11991;57.150;-2.134;2023-01-26T04:02:28;6.30;99.90
23629;DHT22;11991;57.150;-2.134;2023-01-26T04:05:13;6.30;99.90
23629;DHT22;11991;57.150;-2.134;2023-01-26T04:08:02;6.30;99.90
23629;DHT22;11991;57.150;-2.134;2023-01-26T04:10:50;6.30;99.90
23629;DHT22;11991;57.150;-2.134;2023-01-26T04:13:19;6.30;99.90
23629;DHT22;11991;57.150;-2.134;2023-01-26T04:16:08;6.30;99.90
23629;DHT22;11991;57.150;-2.134;2023-01-26T04:18:54;6.20;99.90
23629;DHT22;11991;57.150;-2.134;2023-01-26T04:21:40;6.20;99.90
23629;DHT22;11991;57.150;-2.134;2023-01-26T04:24:13;6.20;99.90
23629;DHT22;11991;57.150;-2.134;2023-01-26T04:26:44;6.20;99.90
23629;DHT22;11991;57.150;-2.134;2023-01-26T04:29:16;6.20;99.90
23629;DHT22;11991;57.150;-2.134;2023-01-26T04:31:45;6.20;99.90
23629;DHT22;11991;57.150;-2.134;2023-01-26T04:34:16;6.20;99.90
23629;DHT22;11991;57.150;-2.134;2023-01-26T04:36:43;6.10;99.90
23629;DHT22;11991;57.150;-2.134;2023-01-26T04:39:12;6.20;99.90
23629;DHT22;11991;57.150;-2.134;2023-01-26T04:41:43;6.20;99.90
23629;DHT22;11991;57.150;-2.134;2023-01-26T04:44:13;6.10;99.90
23629;DHT22;11991;57.150;-2.134;2023-01-26T04:46:41;6.10;99.90
23629;DHT22;11991;57.150;-2.134;2023-01-26T04:49:11;6.10;99.90
23629;DHT22;11991;57.150;-2.134;2023-01-26T04:51:39;6.10;99.90
23629;DHT22;11991;57.150;-2.134;2023-01-26T04:54:07;6.10;99.90
23629;DHT22;11991;57.150;-2.134;2023-01-26T04:56:38;6.10;99.90
23629;DHT22;11991;57.150;-2.134;2023-01-26T04:59:06;6.20;99.90
23629;DHT22;11991;57.150;-2.134;2023-01-26T05:01:36;6.10;99.90
23629;DHT22;11991;57.150;-2.134;2023-01-26T05:04:06;6.20;99.90
23629;DHT22;11991;57.150;-2.134;2023-01-26T05:06:36;6.20;99.90
23629;DHT22;11991;57.150;-2.134;2023-01-26T05:09:04;6.20;99.90
23629;DHT22;11991;57.150;-2.134;2023-01-26T05:11:33;6.20;99.90
23629;DHT22;11991;57.150;-2.134;2023-01-26T05:14:20;6.20;99.90
23629;DHT22;11991;57.150;-2.134;2023-01-26T05:17:10;6.20;99.90
23629;DHT22;11991;57.150;-2.134;2023-01-26T05:19:53;6.20;99.90
23629;DHT22;11991;57.150;-2.134;2023-01-26T05:22:58;6.20;99.90
23629;DHT22;11991;57.150;-2.134;2023-01-26T05:25:31;6.30;99.90
23629;DHT22;11991;57.150;-2.134;2023-01-26T05:28:10;6.30;99.90
23629;DHT22;11991;57.150;-2.134;2023-01-26T05:30:39;6.30;99.90
23629;DHT22;11991;57.150;-2.134;2023-01-26T05:33:09;6.20;99.90
23629;DHT22;11991;57.150;-2.134;2023-01-26T05:35:37;6.20;99.90
23629;DHT22;11991;57.150;-2.134;2023-01-26T05:38:07;6.30;99.90
23629;DHT22;11991;57.150;-2.134;2023-01-26T05:40:35;6.30;99.90
23629;DHT22;11991;57.150;-2.134;2023-01-26T05:43:02;6.30;99.90
23629;DHT22;11991;57.150;-2.134;2023-01-26T05:45:48;6.30;99.90
23629;DHT22;11991;57.150;-2.134;2023-01-26T05:48:17;6.30;99.90
23629;DHT22;11991;57.150;-2.134;2023-01-26T05:50:46;6.30;99.90
23629;DHT22;11991;57.150;-2.134;2023-01-26T05:53:19;6.30;99.90
23629;DHT22;11991;57.150;-2.134;2023-01-26T05:55:47;6.30;99.90
23629;DHT22;11991;57.150;-2.134;2023-01-26T05:58:17;6.30;99.90
23629;DHT22;11991;57.150;-2.134;2023-01-26T06:00:44;6.30;99.90
23629;DHT22;11991;57.150;-2.134;2023-01-26T06:03:19;6.30;99.90
23629;DHT22;11991;57.150;-2.134;2023-01-26T06:05:52;6.30;99.90
23629;DHT22;11991;57.150;-2.134;2023-01-26T06:08:38;6.30;99.90
23629;DHT22;11991;57.150;-2.134;2023-01-26T06:11:24;6.20;99.90
23629;DHT22;11991;57.150;-2.134;2023-01-26T06:14:20;6.20;99.90
23629;DHT22;11991;57.150;-2.134;2023-01-26T06:16:48;6.20;99.90
23629;DHT22;11991;57.150;-2.134;2023-01-26T06:19:15;6.20;99.90
23629;DHT22;11991;57.150;-2.134;2023-01-26T06:21:48;6.20;99.90
23629;DHT22;11991;57.150;-2.134;2023-01-26T06:24:15;6.10;99.90
23629;DHT22;11991;57.150;-2.134;2023-01-26T06:26:42;6.10;99.90
23629;DHT22;11991;57.150;-2.134;2023-01-26T06:29:10;6.10;99.90
23629;DHT22;11991;57.150;-2.134;2023-01-26T06:31:38;6.10;99.90
23629;DHT22;11991;57.150;-2.134;2023-01-26T06:34:07;6.10;99.90
23629;DHT22;11991;57.150;-2.134;2023-01-26T06:36:38;6.10;99.90
23629;DHT22;11991;57.150;-2.134;2023-01-26T06:39:11;6.00;99.90
23629;DHT22;11991;57.150;-2.134;2023-01-26T06:41:41;6.00;99.90
23629;DHT22;11991;57.150;-2.134;2023-01-26T06:44:10;6.00;99.90
23629;DHT22;11991;57.150;-2.134;2023-01-26T06:46:38;6.00;99.90
23629;DHT22;11991;57.150;-2.134;2023-01-26T06:49:06;6.00;99.90
23629;DHT22;11991;57.150;-2.134;2023-01-26T06:51:45;6.00;99.90
23629;DHT22;11991;57.150;-2.134;2023-01-26T06:54:14;6.00;99.90
23629;DHT22;11991;57.150;-2.134;2023-01-26T06:57:20;5.90;99.90
23629;DHT22;11991;57.150;-2.134;2023-01-26T07:00:06;5.80;99.90
23629;DHT22;11991;57.150;-2.134;2023-01-26T07:02:59;5.80;99.90
23629;DHT22;11991;57.150;-2.134;2023-01-26T07:05:27;5.70;99.90
23629;DHT22;11991;57.150;-2.134;2023-01-26T07:07:54;5.60;99.90
23629;DHT22;11991;57.150;-2.134;2023-01-26T07:10:21;5.60;99.90
23629;DHT22;11991;57.150;-2.134;2023-01-26T07:12:48;5.50;99.90
23629;DHT22;11991;57.150;-2.134;2023-01-26T07:15:15;5.50;99.90
23629;DHT22;11991;57.150;-2.134;2023-01-26T07:17:43;5.50;99.90
23629;DHT22;11991;57.150;-2.134;2023-01-26T07:20:10;5.50;99.90
23629;DHT22;11991;57.150;-2.134;2023-01-26T07:22:38;5.40;99.90
23629;DHT22;11991;57.150;-2.134;2023-01-26T07:25:05;5.40;99.90
23629;DHT22;11991;57.150;-2.134;2023-01-26T07:27:32;5.40;99.90
23629;DHT22;11991;57.150;-2.134;2023-01-26T07:30:00;5.30;99.90
23629;DHT22;11991;57.150;-2.134;2023-01-26T07:32:27;5.30;99.90
23629;DHT22;11991;57.150;-2.134;2023-01-26T07:34:54;5.30;99.90
23629;DHT22;11991;57.150;-2.134;2023-01-26T07:37:21;5.30;99.90
23629;DHT22;11991;57.150;-2.134;2023-01-26T07:39:49;5.30;99.90
23629;DHT22;11991;57.150;-2.134;2023-01-26T07:42:16;5.30;99.90
23629;DHT22;11991;57.150;-2.134;2023-01-26T07:44:56;5.20;99.90
23629;DHT22;11991;57.150;-2.134;2023-01-26T07:47:24;5.20;99.90
23629;DHT22;11991;57.150;-2.134;2023-01-26T07:49:51;5.20;99.90
23629;DHT22;11991;57.150;-2.134;2023-01-26T07:52:18;5.20;99.90
23629;DHT22;11991;57.150;-2.134;2023-01-26T07:54:46;5.20;99.90
23629;DHT22;11991;57.150;-2.134;2023-01-26T07:57:13;5.20;99.90
23629;DHT22;11991;57.150;-2.134;2023-01-26T07:59:41;5.30;99.90
23629;DHT22;11991;57.150;-2.134;2023-01-26T08:02:09;5.30;99.90
23629;DHT22;11991;57.150;-2.134;2023-01-26T08:04:36;5.20;99.90
23629;DHT22;11991;57.150;-2.134;2023-01-26T08:07:04;5.20;99.90
23629;DHT22;11991;57.150;-2.134;2023-01-26T08:09:31;5.30;99.90
23629;DHT22;11991;57.150;-2.134;2023-01-26T08:11:58;5.30;99.90
23629;DHT22;11991;57.150;-2.134;2023-01-26T08:14:26;5.20;99.90
23629;DHT22;11991;57.150;-2.134;2023-01-26T08:17:07;5.20;99.90
23629;DHT22;11991;57.150;-2.134;2023-01-26T08:19:35;5.20;99.90
23629;DHT22;11991;57.150;-2.134;2023-01-26T08:22:02;5.20;99.90
23629;DHT22;11991;57.150;-2.134;2023-01-26T08:24:29;5.30;99.90
23629;DHT22;11991;57.150;-2.134;2023-01-26T08:26:56;5.30;99.90
23629;DHT22;11991;57.150;-2.134;2023-01-26T08:29:24;5.30;99.90
23629;DHT22;11991;57.150;-2.134;2023-01-26T08:31:51;5.30;99.90
23629;DHT22;11991;57.150;-2.134;2023-01-26T08:34:19;5.30;99.90
23629;DHT22;11991;57.150;-2.134;2023-01-26T08:36:48;5.30;99.90
23629;DHT22;11991;57.150;-2.134;2023-01-26T08:39:15;5.30;99.90
23629;DHT22;11991;57.150;-2.134;2023-01-26T08:41:42;5.30;99.90
23629;DHT22;11991;57.150;-2.134;2023-01-26T08:44:10;5.30;99.90
23629;DHT22;11991;57.150;-2.134;2023-01-26T08:46:37;5.30;99.90
23629;DHT22;11991;57.150;-2.134;2023-01-26T08:49:04;5.30;99.90
23629;DHT22;11991;57.150;-2.134;2023-01-26T08:51:31;5.30;99.90
23629;DHT22;11991;57.150;-2.134;2023-01-26T08:53:59;5.30;99.90
23629;DHT22;11991;57.150;-2.134;2023-01-26T08:56:26;5.30;99.90
23629;DHT22;11991;57.150;-2.134;2023-01-26T08:58:53;5.30;99.90
23629;DHT22;11991;57.150;-2.134;2023-01-26T09:01:21;5.30;99.90
23629;DHT22;11991;57.150;-2.134;2023-01-26T09:03:48;5.30;99.90
23629;DHT22;11991;57.150;-2.134;2023-01-26T09:06:18;5.30;99.90
23629;DHT22;11991;57.150;-2.134;2023-01-26T09:08:45;5.30;99.90
23629;DHT22;11991;57.150;-2.134;2023-01-26T09:11:13;5.30;99.90
23629;DHT22;11991;57.150;-2.134;2023-01-26T09:13:40;5.30;99.90
23629;DHT22;11991;57.150;-2.134;2023-01-26T09:16:14;5.30;99.90
23629;DHT22;11991;57.150;-2.134;2023-01-26T09:18:48;5.40;99.90
23629;DHT22;11991;57.150;-2.134;2023-01-26T09:21:17;5.30;99.90
23629;DHT22;11991;57.150;-2.134;2023-01-26T09:23:44;5.30;99.90
23629;DHT22;11991;57.150;-2.134;2023-01-26T09:26:11;5.40;99.90
23629;DHT22;11991;57.150;-2.134;2023-01-26T09:28:38;5.30;99.90
23629;DHT22;11991;57.150;-2.134;2023-01-26T09:31:07;5.30;99.90
23629;DHT22;11991;57.150;-2.134;2023-01-26T09:33:36;5.30;99.90
23629;DHT22;11991;57.150;-2.134;2023-01-26T09:36:05;5.30;99.90
23629;DHT22;11991;57.150;-2.134;2023-01-26T09:38:33;5.30;99.90
23629;DHT22;11991;57.150;-2.134;2023-01-26T09:44:14;5.30;99.90
23629;DHT22;11991;57.150;-2.134;2023-01-26T09:47:32;5.30;99.90
23629;DHT22;11991;57.150;-2.134;2023-01-26T09:52:26;5.30;99.90
23629;DHT22;11991;57.150;-2.134;2023-01-26T09:55:01;5.30;99.90
23629;DHT22;11991;57.150;-2.134;2023-01-26T09:57:45;5.30;99.90
23629;DHT22;11991;57.150;-2.134;2023-01-26T10:00:19;5.40;99.90
23629;DHT22;11991;57.150;-2.134;2023-01-26T10:03:07;5.40;99.90
23629;DHT22;11991;57.150;-2.134;2023-01-26T10:05:57;5.50;99.90
23629;DHT22;11991;57.150;-2.134;2023-01-26T10:09:11;5.50;99.90
23629;DHT22;11991;57.150;-2.134;2023-01-26T10:11:45;5.60;99.90
23629;DHT22;11991;57.150;-2.134;2023-01-26T10:17:03;5.60;99.90
23629;DHT22;11991;57.150;-2.134;2023-01-26T10:22:05;5.60;99.90
23629;DHT22;11991;57.150;-2.134;2023-01-26T10:24:34;5.60;99.90
23629;DHT22;11991;57.150;-2.134;2023-01-26T10:27:01;5.60;99.90
23629;DHT22;11991;57.150;-2.134;2023-01-26T10:29:29;5.60;99.90
23629;DHT22;11991;57.150;-2.134;2023-01-26T10:31:56;5.60;99.90
23629;DHT22;11991;57.150;-2.134;2023-01-26T10:34:24;5.60;99.90
23629;DHT22;11991;57.150;-2.134;2023-01-26T10:36:59;5.60;99.90
23629;DHT22;11991;57.150;-2.134;2023-01-26T10:39:27;5.60;99.90
23629;DHT22;11991;57.150;-2.134;2023-01-26T10:41:57;5.60;99.90
23629;DHT22;11991;57.150;-2.134;2023-01-26T10:44:33;5.60;99.90
23629;DHT22;11991;57.150;-2.134;2023-01-26T10:47:16;5.60;99.90
23629;DHT22;11991;57.150;-2.134;2023-01-26T10:49:44;5.50;99.90
23629;DHT22;11991;57.150;-2.134;2023-01-26T10:52:20;5.50;99.90
23629;DHT22;11991;57.150;-2.134;2023-01-26T10:55:11;5.50;99.90
23629;DHT22;11991;57.150;-2.134;2023-01-26T10:57:40;5.50;99.90
23629;DHT22;11991;57.150;-2.134;2023-01-26T11:03:16;5.40;99.90
23629;DHT22;11991;57.150;-2.134;2023-01-26T11:05:41;5.40;99.90
23629;DHT22;11991;57.150;-2.134;2023-01-26T11:11:00;5.40;99.90
23629;DHT22;11991;57.150;-2.134;2023-01-26T11:13:29;5.40;99.90
23629;DHT22;11991;57.150;-2.134;2023-01-26T11:21:56;5.50;99.90
23629;DHT22;11991;57.150;-2.134;2023-01-26T11:24:28;5.50;99.90
23629;DHT22;11991;57.150;-2.134;2023-01-26T11:38:10;5.50;99.90
23629;DHT22;11991;57.150;-2.134;2023-01-26T11:40:46;5.60;99.90
23629;DHT22;11991;57.150;-2.134;2023-01-26T11:57:58;5.80;99.90
23629;DHT22;11991;57.150;-2.134;2023-01-26T12:00:52;5.90;99.90
23629;DHT22;11991;57.150;-2.134;2023-01-26T12:03:40;5.90;99.90
23629;DHT22;11991;57.150;-2.134;2023-01-26T12:06:17;6.00;99.90
23629;DHT22;11991;57.150;-2.134;2023-01-26T12:12:00;6.00;99.90
23629;DHT22;11991;57.150;-2.134;2023-01-26T12:14:54;5.90;99.90
23629;DHT22;11991;57.150;-2.134;2023-01-26T12:20:53;6.00;99.90
23629;DHT22;11991;57.150;-2.134;2023-01-26T12:23:33;5.90;99.90
23629;DHT22;11991;57.150;-2.134;2023-01-26T12:26:11;6.00;99.90
23629;DHT22;11991;57.150;-2.134;2023-01-26T12:35:47;6.00;99.90
23629;DHT22;11991;57.150;-2.134;2023-01-26T12:38:27;6.10;99.90
23629;DHT22;11991;57.150;-2.134;2023-01-26T12:44:21;6.10;99.90
23629;DHT22;11991;57.150;-2.134;2023-01-26T12:46:56;6.20;99.90
23629;DHT22;11991;57.150;-2.134;2023-01-26T12:49:39;6.20;99.90
23629;DHT22;11991;57.150;-2.134;2023-01-26T12:55:16;6.30;99.90
23629;DHT22;11991;57.150;-2.134;2023-01-26T12:57:52;6.30;99.90
23629;DHT22;11991;57.150;-2.134;2023-01-26T13:00:23;6.30;99.90
23629;DHT22;11991;57.150;-2.134;2023-01-26T13:03:00;6.30;99.90
23629;DHT22;11991;57.150;-2.134;2023-01-26T13:05:34;6.20;99.90
23629;DHT22;11991;57.150;-2.134;2023-01-26T13:11:08;6.10;99.90
23629;DHT22;11991;57.150;-2.134;2023-01-26T13:13:56;6.10;99.90
23629;DHT22;11991;57.150;-2.134;2023-01-26T13:19:02;6.10;99.90
23629;DHT22;11991;57.150;-2.134;2023-01-26T13:26:54;6.10;99.90
23629;DHT22;11991;57.150;-2.134;2023-01-26T13:34:36;6.20;99.90
23629;DHT22;11991;57.150;-2.134;2023-01-26T13:39:51;6.30;99.90
23629;DHT22;11991;57.150;-2.134;2023-01-26T13:42:46;6.40;99.90
23629;DHT22;11991;57.150;-2.134;2023-01-26T13:48:02;6.50;99.90
23629;DHT22;11991;57.150;-2.134;2023-01-26T13:50:33;6.50;99.90
23629;DHT22;11991;57.150;-2.134;2023-01-26T13:56:23;6.60;99.90
23629;DHT22;11991;57.150;-2.134;2023-01-26T13:58:52;6.60;99.90
23629;DHT22;11991;57.150;-2.134;2023-01-26T14:01:20;6.60;99.90
23629;DHT22;11991;57.150;-2.134;2023-01-26T14:03:47;6.60;99.90
23629;DHT22;11991;57.150;-2.134;2023-01-26T14:06:18;6.60;99.90
23629;DHT22;11991;57.150;-2.134;2023-01-26T14:08:54;6.60;99.90
23629;DHT22;11991;57.150;-2.134;2023-01-26T14:11:24;6.70;99.90
23629;DHT22;11991;57.150;-2.134;2023-01-26T14:13:53;6.70;99.90
23629;DHT22;11991;57.150;-2.134;2023-01-26T14:16:35;6.70;99.90
23629;DHT22;11991;57.150;-2.134;2023-01-26T14:19:17;6.80;99.90
23629;DHT22;11991;57.150;-2.134;2023-01-26T14:21:49;6.80;99.90
23629;DHT22;11991;57.150;-2.134;2023-01-26T14:24:18;6.80;99.90
23629;DHT22;11991;57.150;-2.134;2023-01-26T14:26:50;6.80;99.90
23629;DHT22;11991;57.150;-2.134;2023-01-26T14:29:21;6.80;99.90
23629;DHT22;11991;57.150;-2.134;2023-01-26T14:31:50;6.80;99.90
23629;DHT22;11991;57.150;-2.134;2023-01-26T14:34:23;6.80;99.90
23629;DHT22;11991;57.150;-2.134;2023-01-26T14:37:11;6.80;99.90
23629;DHT22;11991;57.150;-2.134;2023-01-26T14:39:40;6.80;99.90
23629;DHT22;11991;57.150;-2.134;2023-01-26T14:42:16;6.80;99.90
23629;DHT22;11991;57.150;-2.134;2023-01-26T14:44:45;6.70;99.90
23629;DHT22;11991;57.150;-2.134;2023-01-26T14:47:17;6.70;99.90
23629;DHT22;11991;57.150;-2.134;2023-01-26T14:49:57;6.60;99.90
23629;DHT22;11991;57.150;-2.134;2023-01-26T14:52:29;6.60;99.90
23629;DHT22;11991;57.150;-2.134;2023-01-26T14:55:03;6.70;99.90
23629;DHT22;11991;57.150;-2.134;2023-01-26T14:57:32;6.70;99.90
23629;DHT22;11991;57.150;-2.134;2023-01-26T15:00:00;6.70;99.90
23629;DHT22;11991;57.150;-2.134;2023-01-26T15:02:36;6.70;99.90
23629;DHT22;11991;57.150;-2.134;2023-01-26T15:05:14;6.70;99.90
23629;DHT22;11991;57.150;-2.134;2023-01-26T15:07:58;6.70;99.90
23629;DHT22;11991;57.150;-2.134;2023-01-26T15:12:58;6.70;99.90
23629;DHT22;11991;57.150;-2.134;2023-01-26T15:15:28;6.60;99.90
23629;DHT22;11991;57.150;-2.134;2023-01-26T15:18:05;6.50;99.90
23629;DHT22;11991;57.150;-2.134;2023-01-26T15:23:00;6.50;99.90
23629;DHT22;11991;57.150;-2.134;2023-01-26T15:25:28;6.40;99.90
23629;DHT22;11991;57.150;-2.134;2023-01-26T15:27:59;6.40;99.90
23629;DHT22;11991;57.150;-2.134;2023-01-26T15:30:35;6.30;99.90
23629;DHT22;11991;57.150;-2.134;2023-01-26T15:33:03;6.30;99.90
23629;DHT22;11991;57.150;-2.134;2023-01-26T15:35:55;6.30;99.90
23629;DHT22;11991;57.150;-2.134;2023-01-26T15:38:23;6.30;99.90
23629;DHT22;11991;57.150;-2.134;2023-01-26T15:40:50;6.30;99.90
23629;DHT22;11991;57.150;-2.134;2023-01-26T15:43:18;6.20;99.90
23629;DHT22;11991;57.150;-2.134;2023-01-26T15:45:49;6.20;99.90
23629;DHT22;11991;57.150;-2.134;2023-01-26T15:48:18;6.20;99.90
23629;DHT22;11991;57.150;-2.134;2023-01-26T15:50:46;6.20;99.90
23629;DHT22;11991;57.150;-2.134;2023-01-26T15:53:18;6.20;99.90
23629;DHT22;11991;57.150;-2.134;2023-01-26T15:55:47;6.20;99.90
23629;DHT22;11991;57.150;-2.134;2023-01-26T15:58:24;6.20;99.90
23629;DHT22;11991;57.150;-2.134;2023-01-26T16:00:52;6.20;99.90
23629;DHT22;11991;57.150;-2.134;2023-01-26T16:03:20;6.20;99.90
23629;DHT22;11991;57.150;-2.134;2023-01-26T16:05:48;6.20;99.90
23629;DHT22;11991;57.150;-2.134;2023-01-26T16:08:16;6.10;99.90
23629;DHT22;11991;57.150;-2.134;2023-01-26T16:10:44;6.10;99.90
23629;DHT22;11991;57.150;-2.134;2023-01-26T16:13:14;6.10;99.90
23629;DHT22;11991;57.150;-2.134;2023-01-26T16:15:47;6.00;99.90
23629;DHT22;11991;57.150;-2.134;2023-01-26T16:18:16;6.00;99.90
23629;DHT22;11991;57.150;-2.134;2023-01-26T16:20:45;6.00;99.90
23629;DHT22;11991;57.150;-2.134;2023-01-26T16:23:22;6.00;99.90
23629;DHT22;11991;57.150;-2.134;2023-01-26T16:25:50;5.90;99.90
23629;DHT22;11991;57.150;-2.134;2023-01-26T16:28:17;5.90;99.90
23629;DHT22;11991;57.150;-2.134;2023-01-26T16:30:46;5.90;99.90
23629;DHT22;11991;57.150;-2.134;2023-01-26T16:33:16;5.80;99.90
23629;DHT22;11991;57.150;-2.134;2023-01-26T16:35:44;5.80;99.90
23629;DHT22;11991;57.150;-2.134;2023-01-26T16:38:11;5.80;99.90
23629;DHT22;11991;57.150;-2.134;2023-01-26T16:40:43;5.70;99.90
23629;DHT22;11991;57.150;-2.134;2023-01-26T16:43:17;5.70;99.90
23629;DHT22;11991;57.150;-2.134;2023-01-26T16:45:50;5.60;99.90
23629;DHT22;11991;57.150;-2.134;2023-01-26T16:48:27;5.60;99.90
23629;DHT22;11991;57.150;-2.134;2023-01-26T16:51:31;5.50;99.90
23629;DHT22;11991;57.150;-2.134;2023-01-26T16:53:57;5.50;99.90
23629;DHT22;11991;57.150;-2.134;2023-01-26T16:56:24;5.50;99.90
23629;DHT22;11991;57.150;-2.134;2023-01-26T16:58:54;5.40;99.90
23629;DHT22;11991;57.150;-2.134;2023-01-26T17:01:24;5.40;99.90
23629;DHT22;11991;57.150;-2.134;2023-01-26T17:03:55;5.40;99.90
23629;DHT22;11991;57.150;-2.134;2023-01-26T17:06:22;5.40;99.90
23629;DHT22;11991;57.150;-2.134;2023-01-26T17:08:52;5.40;99.90
23629;DHT22;11991;57.150;-2.134;2023-01-26T17:11:24;5.40;99.90
23629;DHT22;11991;57.150;-2.134;2023-01-26T17:13:55;5.40;99.90
23629;DHT22;11991;57.150;-2.134;2023-01-26T17:16:24;5.30;99.90
23629;DHT22;11991;57.150;-2.134;2023-01-26T17:18:55;5.30;99.90
23629;DHT22;11991;57.150;-2.134;2023-01-26T17:21:23;5.30;99.90
23629;DHT22;11991;57.150;-2.134;2023-01-26T17:23:53;5.30;99.90
23629;DHT22;11991;57.150;-2.134;2023-01-26T17:26:22;5.20;99.90
23629;DHT22;11991;57.150;-2.134;2023-01-26T17:28:53;5.20;99.90
23629;DHT22;11991;57.150;-2.134;2023-01-26T17:31:21;5.20;99.90
23629;DHT22;11991;57.150;-2.134;2023-01-26T17:33:49;5.20;99.90
23629;DHT22;11991;57.150;-2.134;2023-01-26T17:36:18;5.20;99.90
23629;DHT22;11991;57.150;-2.134;2023-01-26T17:38:46;5.20;99.90
23629;DHT22;11991;57.150;-2.134;2023-01-26T17:41:15;5.20;99.90
23629;DHT22;11991;57.150;-2.134;2023-01-26T17:43:42;5.20;99.90
23629;DHT22;11991;57.150;-2.134;2023-01-26T17:46:15;5.20;99.90
23629;DHT22;11991;57.150;-2.134;2023-01-26T17:48:43;5.20;99.90